sensor_id;sensor_type;location;lat;lon;timestamp;P1;durP1;ratioP1;P2;durP2;ratioP2
17175;SDS011;8703;48.996;9.594;2022-07-29T00:00:48;4.85;;;4.25;;
17175;SDS011;8703;48.996;9.594;2022-07-29T00:03:15;6.10;;;4.50;;
17175;SDS011;8703;48.996;9.594;2022-07-29T00:05:42;6.45;;;4.38;;
17175;SDS011;8703;48.996;9.594;2022-07-29T00:08:10;4.55;;;4.13;;
17175;SDS011;8703;48.996;9.594;2022-07-29T00:10:37;4.93;;;4.00;;
17175;SDS011;8703;48.996;9.594;2022-07-29T00:13:06;5.00;;;4.13;;
17175;SDS011;8703;48.996;9.594;2022-07-29T00:15:33;4.50;;;4.10;;
17175;SDS011;8703;48.996;9.594;2022-07-29T00:18:00;4.32;;;3.70;;
17175;SDS011;8703;48.996;9.594;2022-07-29T00:20:28;5.80;;;4.13;;
17175;SDS011;8703;48.996;9.594;2022-07-29T00:22:55;6.05;;;4.55;;
17175;SDS011;8703;48.996;9.594;2022-07-29T00:25:23;5.22;;;4.28;;
17175;SDS011;8703;48.996;9.594;2022-07-29T00:27:50;6.22;;;4.32;;
17175;SDS011;8703;48.996;9.594;2022-07-29T00:30:19;4.85;;;4.43;;
17175;SDS011;8703;48.996;9.594;2022-07-29T00:32:46;5.68;;;4.43;;
17175;SDS011;8703;48.996;9.594;2022-07-29T00:35:13;5.78;;;4.85;;
17175;SDS011;8703;48.996;9.594;2022-07-29T00:37:58;4.72;;;4.07;;
17175;SDS011;8703;48.996;9.594;2022-07-29T00:40:26;5.57;;;5.10;;
17175;SDS011;8703;48.996;9.594;2022-07-29T00:42:53;7.05;;;4.70;;
17175;SDS011;8703;48.996;9.594;2022-07-29T00:45:22;5.65;;;5.00;;
17175;SDS011;8703;48.996;9.594;2022-07-29T00:47:49;6.00;;;4.50;;
17175;SDS011;8703;48.996;9.594;2022-07-29T00:50:16;7.78;;;4.93;;
17175;SDS011;8703;48.996;9.594;2022-07-29T00:52:44;6.10;;;5.05;;
17175;SDS011;8703;48.996;9.594;2022-07-29T00:55:13;4.82;;;4.30;;
17175;SDS011;8703;48.996;9.594;2022-07-29T00:57:41;5.40;;;4.90;;
17175;SDS011;8703;48.996;9.594;2022-07-29T01:00:10;4.80;;;4.20;;
17175;SDS011;8703;48.996;9.594;2022-07-29T01:02:39;5.25;;;4.53;;
17175;SDS011;8703;48.996;9.594;2022-07-29T01:05:07;5.40;;;4.57;;
17175;SDS011;8703;48.996;9.594;2022-07-29T01:07:34;5.45;;;4.55;;
17175;SDS011;8703;48.996;9.594;2022-07-29T01:10:03;4.53;;;4.13;;
17175;SDS011;8703;48.996;9.594;2022-07-29T01:12:31;5.13;;;4.28;;
17175;SDS011;8703;48.996;9.594;2022-07-29T01:15:00;5.18;;;4.30;;
17175;SDS011;8703;48.996;9.594;2022-07-29T01:17:28;4.60;;;4.10;;
17175;SDS011;8703;48.996;9.594;2022-07-29T01:20:03;4.90;;;3.78;;
17175;SDS011;8703;48.996;9.594;2022-07-29T01:22:40;5.05;;;4.55;;
17175;SDS011;8703;48.996;9.594;2022-07-29T01:25:26;4.55;;;4.15;;
17175;SDS011;8703;48.996;9.594;2022-07-29T01:31:28;5.90;;;5.30;;
17175;SDS011;8703;48.996;9.594;2022-07-29T01:34:01;5.88;;;4.88;;
17175;SDS011;8703;48.996;9.594;2022-07-29T01:36:31;5.93;;;4.75;;
17175;SDS011;8703;48.996;9.594;2022-07-29T01:39:02;5.10;;;4.32;;
17175;SDS011;8703;48.996;9.594;2022-07-29T01:41:34;5.28;;;4.78;;
17175;SDS011;8703;48.996;9.594;2022-07-29T01:44:08;5.90;;;3.72;;
17175;SDS011;8703;48.996;9.594;2022-07-29T01:46:40;5.32;;;4.47;;
17175;SDS011;8703;48.996;9.594;2022-07-29T01:49:13;5.00;;;4.50;;
17175;SDS011;8703;48.996;9.594;2022-07-29T01:51:43;7.47;;;4.20;;
17175;SDS011;8703;48.996;9.594;2022-07-29T01:54:14;5.10;;;4.15;;
17175;SDS011;8703;48.996;9.594;2022-07-29T01:56:45;5.28;;;4.47;;
17175;SDS011;8703;48.996;9.594;2022-07-29T01:59:15;4.90;;;4.40;;
17175;SDS011;8703;48.996;9.594;2022-07-29T02:01:45;4.90;;;4.10;;
17175;SDS011;8703;48.996;9.594;2022-07-29T02:04:13;4.85;;;4.32;;
17175;SDS011;8703;48.996;9.594;2022-07-29T02:06:42;5.95;;;4.50;;
17175;SDS011;8703;48.996;9.594;2022-07-29T02:09:11;5.93;;;4.13;;
17175;SDS011;8703;48.996;9.594;2022-07-29T02:11:40;5.18;;;4.40;;
17175;SDS011;8703;48.996;9.594;2022-07-29T02:14:13;5.65;;;4.38;;
17175;SDS011;8703;48.996;9.594;2022-07-29T02:16:43;4.85;;;4.45;;
17175;SDS011;8703;48.996;9.594;2022-07-29T02:19:11;5.53;;;4.97;;
17175;SDS011;8703;48.996;9.594;2022-07-29T02:21:39;4.85;;;4.28;;
17175;SDS011;8703;48.996;9.594;2022-07-29T02:24:07;4.68;;;4.25;;
17175;SDS011;8703;48.996;9.594;2022-07-29T02:26:36;4.82;;;3.92;;
17175;SDS011;8703;48.996;9.594;2022-07-29T02:29:04;4.68;;;4.18;;
17175;SDS011;8703;48.996;9.594;2022-07-29T02:31:34;4.53;;;4.10;;
17175;SDS011;8703;48.996;9.594;2022-07-29T02:34:03;4.80;;;3.97;;
17175;SDS011;8703;48.996;9.594;2022-07-29T02:36:32;4.63;;;4.22;;
17175;SDS011;8703;48.996;9.594;2022-07-29T02:39:00;4.90;;;4.40;;
17175;SDS011;8703;48.996;9.594;2022-07-29T02:41:30;5.70;;;4.50;;
17175;SDS011;8703;48.996;9.594;2022-07-29T02:44:01;5.30;;;4.80;;
17175;SDS011;8703;48.996;9.594;2022-07-29T02:46:32;6.07;;;4.82;;
17175;SDS011;8703;48.996;9.594;2022-07-29T02:49:04;5.65;;;4.85;;
17175;SDS011;8703;48.996;9.594;2022-07-29T02:51:43;6.25;;;4.55;;
17175;SDS011;8703;48.996;9.594;2022-07-29T02:54:14;4.70;;;4.20;;
17175;SDS011;8703;48.996;9.594;2022-07-29T02:56:46;5.35;;;3.97;;
17175;SDS011;8703;48.996;9.594;2022-07-29T02:59:17;5.60;;;4.90;;
17175;SDS011;8703;48.996;9.594;2022-07-29T03:01:50;4.80;;;4.13;;
17175;SDS011;8703;48.996;9.594;2022-07-29T03:04:18;6.57;;;4.53;;
17175;SDS011;8703;48.996;9.594;2022-07-29T03:06:46;5.00;;;4.28;;
17175;SDS011;8703;48.996;9.594;2022-07-29T03:09:14;4.95;;;4.30;;
17175;SDS011;8703;48.996;9.594;2022-07-29T03:11:41;6.15;;;4.18;;
17175;SDS011;8703;48.996;9.594;2022-07-29T03:14:09;4.80;;;4.28;;
17175;SDS011;8703;48.996;9.594;2022-07-29T03:16:36;7.53;;;6.68;;
17175;SDS011;8703;48.996;9.594;2022-07-29T03:19:05;5.97;;;4.70;;
17175;SDS011;8703;48.996;9.594;2022-07-29T03:21:33;4.97;;;4.47;;
17175;SDS011;8703;48.996;9.594;2022-07-29T03:24:00;4.30;;;3.90;;
17175;SDS011;8703;48.996;9.594;2022-07-29T03:26:28;5.78;;;4.20;;
17175;SDS011;8703;48.996;9.594;2022-07-29T03:28:55;5.68;;;3.80;;
17175;SDS011;8703;48.996;9.594;2022-07-29T03:31:22;5.03;;;4.28;;
17175;SDS011;8703;48.996;9.594;2022-07-29T03:33:50;4.20;;;3.80;;
17175;SDS011;8703;48.996;9.594;2022-07-29T03:36:18;4.25;;;3.85;;
17175;SDS011;8703;48.996;9.594;2022-07-29T03:38:46;6.40;;;4.30;;
17175;SDS011;8703;48.996;9.594;2022-07-29T03:41:14;4.78;;;3.95;;
17175;SDS011;8703;48.996;9.594;2022-07-29T03:43:41;4.20;;;3.80;;
17175;SDS011;8703;48.996;9.594;2022-07-29T03:46:09;6.45;;;4.50;;
17175;SDS011;8703;48.996;9.594;2022-07-29T03:48:39;5.05;;;4.55;;
17175;SDS011;8703;48.996;9.594;2022-07-29T03:51:11;5.90;;;4.38;;
17175;SDS011;8703;48.996;9.594;2022-07-29T03:53:40;5.20;;;4.70;;
17175;SDS011;8703;48.996;9.594;2022-07-29T03:56:07;4.55;;;4.03;;
17175;SDS011;8703;48.996;9.594;2022-07-29T03:58:36;4.75;;;4.07;;
17175;SDS011;8703;48.996;9.594;2022-07-29T04:01:05;5.87;;;4.07;;
17175;SDS011;8703;48.996;9.594;2022-07-29T04:03:33;7.80;;;4.10;;
17175;SDS011;8703;48.996;9.594;2022-07-29T04:06:02;7.55;;;4.45;;
17175;SDS011;8703;48.996;9.594;2022-07-29T04:08:31;4.85;;;3.83;;
17175;SDS011;8703;48.996;9.594;2022-07-29T04:11:01;6.22;;;4.05;;
17175;SDS011;8703;48.996;9.594;2022-07-29T04:13:28;6.15;;;4.32;;
17175;SDS011;8703;48.996;9.594;2022-07-29T04:15:56;5.93;;;5.32;;
17175;SDS011;8703;48.996;9.594;2022-07-29T04:18:24;5.30;;;4.80;;
17175;SDS011;8703;48.996;9.594;2022-07-29T04:20:51;5.13;;;4.30;;
17175;SDS011;8703;48.996;9.594;2022-07-29T04:23:19;7.47;;;4.00;;
17175;SDS011;8703;48.996;9.594;2022-07-29T04:25:46;7.30;;;4.95;;
17175;SDS011;8703;48.996;9.594;2022-07-29T04:28:15;8.43;;;4.85;;
17175;SDS011;8703;48.996;9.594;2022-07-29T04:30:42;6.05;;;5.13;;
17175;SDS011;8703;48.996;9.594;2022-07-29T04:33:10;5.95;;;5.20;;
17175;SDS011;8703;48.996;9.594;2022-07-29T04:35:37;5.43;;;4.63;;
17175;SDS011;8703;48.996;9.594;2022-07-29T04:38:05;5.50;;;4.90;;
17175;SDS011;8703;48.996;9.594;2022-07-29T04:40:32;6.05;;;5.30;;
17175;SDS011;8703;48.996;9.594;2022-07-29T04:43:00;5.10;;;4.70;;
17175;SDS011;8703;48.996;9.594;2022-07-29T04:45:29;5.93;;;5.28;;
17175;SDS011;8703;48.996;9.594;2022-07-29T04:47:56;5.25;;;4.40;;
17175;SDS011;8703;48.996;9.594;2022-07-29T04:50:23;6.00;;;5.37;;
17175;SDS011;8703;48.996;9.594;2022-07-29T04:52:51;6.30;;;5.70;;
17175;SDS011;8703;48.996;9.594;2022-07-29T04:55:18;6.15;;;5.38;;
17175;SDS011;8703;48.996;9.594;2022-07-29T04:57:46;6.97;;;5.60;;
17175;SDS011;8703;48.996;9.594;2022-07-29T05:00:13;5.93;;;5.28;;
17175;SDS011;8703;48.996;9.594;2022-07-29T05:02:42;6.60;;;5.57;;
17175;SDS011;8703;48.996;9.594;2022-07-29T05:05:09;5.53;;;5.03;;
17175;SDS011;8703;48.996;9.594;2022-07-29T05:07:37;5.07;;;4.57;;
17175;SDS011;8703;48.996;9.594;2022-07-29T05:10:05;6.47;;;5.53;;
17175;SDS011;8703;48.996;9.594;2022-07-29T05:12:32;7.43;;;6.25;;
17175;SDS011;8703;48.996;9.594;2022-07-29T05:15:00;5.97;;;5.38;;
17175;SDS011;8703;48.996;9.594;2022-07-29T05:17:27;6.90;;;5.93;;
17175;SDS011;8703;48.996;9.594;2022-07-29T05:19:56;7.43;;;5.68;;
17175;SDS011;8703;48.996;9.594;2022-07-29T05:22:23;6.00;;;5.40;;
17175;SDS011;8703;48.996;9.594;2022-07-29T05:24:50;6.22;;;4.85;;
17175;SDS011;8703;48.996;9.594;2022-07-29T05:27:18;7.15;;;5.90;;
17175;SDS011;8703;48.996;9.594;2022-07-29T05:29:45;6.70;;;6.10;;
17175;SDS011;8703;48.996;9.594;2022-07-29T05:32:13;6.30;;;5.80;;
17175;SDS011;8703;48.996;9.594;2022-07-29T05:34:40;6.03;;;5.50;;
17175;SDS011;8703;48.996;9.594;2022-07-29T05:37:09;6.40;;;5.53;;
17175;SDS011;8703;48.996;9.594;2022-07-29T05:39:38;7.43;;;6.63;;
17175;SDS011;8703;48.996;9.594;2022-07-29T05:42:07;6.35;;;5.75;;
17175;SDS011;8703;48.996;9.594;2022-07-29T05:44:36;6.93;;;6.32;;
17175;SDS011;8703;48.996;9.594;2022-07-29T05:47:03;7.45;;;6.65;;
17175;SDS011;8703;48.996;9.594;2022-07-29T05:49:31;6.85;;;5.63;;
17175;SDS011;8703;48.996;9.594;2022-07-29T05:51:58;6.30;;;5.63;;
17175;SDS011;8703;48.996;9.594;2022-07-29T05:54:27;7.95;;;6.38;;
17175;SDS011;8703;48.996;9.594;2022-07-29T05:56:54;7.05;;;6.03;;
17175;SDS011;8703;48.996;9.594;2022-07-29T05:59:22;6.95;;;6.10;;
17175;SDS011;8703;48.996;9.594;2022-07-29T06:01:49;7.68;;;6.45;;
17175;SDS011;8703;48.996;9.594;2022-07-29T06:04:16;7.22;;;6.07;;
17175;SDS011;8703;48.996;9.594;2022-07-29T06:06:44;13.60;;;7.13;;
17175;SDS011;8703;48.996;9.594;2022-07-29T06:09:11;8.50;;;6.30;;
17175;SDS011;8703;48.996;9.594;2022-07-29T06:11:40;7.97;;;6.57;;
17175;SDS011;8703;48.996;9.594;2022-07-29T06:14:07;8.15;;;6.30;;
17175;SDS011;8703;48.996;9.594;2022-07-29T06:16:34;10.15;;;6.45;;
17175;SDS011;8703;48.996;9.594;2022-07-29T06:19:02;8.18;;;6.20;;
17175;SDS011;8703;48.996;9.594;2022-07-29T06:21:30;7.90;;;6.80;;
17175;SDS011;8703;48.996;9.594;2022-07-29T06:23:57;7.80;;;6.95;;
17175;SDS011;8703;48.996;9.594;2022-07-29T06:26:25;7.72;;;6.28;;
17175;SDS011;8703;48.996;9.594;2022-07-29T06:28:53;6.82;;;6.20;;
17175;SDS011;8703;48.996;9.594;2022-07-29T06:31:21;6.90;;;6.22;;
17175;SDS011;8703;48.996;9.594;2022-07-29T06:33:48;6.38;;;5.75;;
17175;SDS011;8703;48.996;9.594;2022-07-29T06:36:15;8.10;;;6.20;;
17175;SDS011;8703;48.996;9.594;2022-07-29T06:38:43;6.72;;;6.03;;
17175;SDS011;8703;48.996;9.594;2022-07-29T06:41:10;6.82;;;5.25;;
17175;SDS011;8703;48.996;9.594;2022-07-29T06:43:41;6.15;;;5.43;;
17175;SDS011;8703;48.996;9.594;2022-07-29T06:46:11;5.75;;;5.25;;
17175;SDS011;8703;48.996;9.594;2022-07-29T06:48:39;7.57;;;5.88;;
17175;SDS011;8703;48.996;9.594;2022-07-29T06:51:08;5.90;;;5.25;;
17175;SDS011;8703;48.996;9.594;2022-07-29T06:53:36;6.93;;;4.80;;
17175;SDS011;8703;48.996;9.594;2022-07-29T06:56:04;5.45;;;4.60;;
17175;SDS011;8703;48.996;9.594;2022-07-29T06:58:33;5.05;;;4.60;;
17175;SDS011;8703;48.996;9.594;2022-07-29T07:01:01;6.35;;;4.55;;
17175;SDS011;8703;48.996;9.594;2022-07-29T07:03:31;5.68;;;4.43;;
17175;SDS011;8703;48.996;9.594;2022-07-29T07:05:59;6.22;;;4.40;;
17175;SDS011;8703;48.996;9.594;2022-07-29T07:08:26;4.57;;;4.15;;
17175;SDS011;8703;48.996;9.594;2022-07-29T07:10:54;4.72;;;3.85;;
17175;SDS011;8703;48.996;9.594;2022-07-29T07:13:21;4.07;;;3.67;;
17175;SDS011;8703;48.996;9.594;2022-07-29T07:15:49;3.33;;;3.03;;
17175;SDS011;8703;48.996;9.594;2022-07-29T07:18:17;4.03;;;3.72;;
17175;SDS011;8703;48.996;9.594;2022-07-29T07:20:46;4.03;;;3.67;;
17175;SDS011;8703;48.996;9.594;2022-07-29T07:23:13;5.07;;;3.33;;
17175;SDS011;8703;48.996;9.594;2022-07-29T07:25:41;4.63;;;3.30;;
17175;SDS011;8703;48.996;9.594;2022-07-29T07:28:08;4.80;;;3.42;;
17175;SDS011;8703;48.996;9.594;2022-07-29T07:30:35;5.55;;;3.05;;
17175;SDS011;8703;48.996;9.594;2022-07-29T07:33:03;3.33;;;3.03;;
17175;SDS011;8703;48.996;9.594;2022-07-29T07:35:30;4.45;;;3.00;;
17175;SDS011;8703;48.996;9.594;2022-07-29T07:37:59;4.65;;;4.15;;
17175;SDS011;8703;48.996;9.594;2022-07-29T07:40:26;3.75;;;2.90;;
17175;SDS011;8703;48.996;9.594;2022-07-29T07:42:54;5.13;;;3.22;;
17175;SDS011;8703;48.996;9.594;2022-07-29T07:45:21;3.67;;;3.17;;
17175;SDS011;8703;48.996;9.594;2022-07-29T07:47:48;6.32;;;3.38;;
17175;SDS011;8703;48.996;9.594;2022-07-29T07:50:16;4.35;;;3.10;;
17175;SDS011;8703;48.996;9.594;2022-07-29T07:52:47;3.80;;;2.90;;
17175;SDS011;8703;48.996;9.594;2022-07-29T07:55:16;6.07;;;3.10;;
17175;SDS011;8703;48.996;9.594;2022-07-29T07:57:44;3.50;;;2.92;;
17175;SDS011;8703;48.996;9.594;2022-07-29T08:00:12;5.68;;;2.80;;
17175;SDS011;8703;48.996;9.594;2022-07-29T08:02:40;3.00;;;2.78;;
17175;SDS011;8703;48.996;9.594;2022-07-29T08:05:10;3.22;;;2.92;;
17175;SDS011;8703;48.996;9.594;2022-07-29T08:07:41;4.68;;;2.80;;
17175;SDS011;8703;48.996;9.594;2022-07-29T08:10:10;3.90;;;3.20;;
17175;SDS011;8703;48.996;9.594;2022-07-29T08:12:39;3.60;;;3.08;;
17175;SDS011;8703;48.996;9.594;2022-07-29T08:15:07;4.03;;;2.67;;
17175;SDS011;8703;48.996;9.594;2022-07-29T08:17:34;3.55;;;2.97;;
17175;SDS011;8703;48.996;9.594;2022-07-29T08:20:02;3.55;;;3.00;;
17175;SDS011;8703;48.996;9.594;2022-07-29T08:22:30;3.28;;;2.80;;
17175;SDS011;8703;48.996;9.594;2022-07-29T08:24:57;4.35;;;3.15;;
17175;SDS011;8703;48.996;9.594;2022-07-29T08:27:25;3.33;;;2.88;;
17175;SDS011;8703;48.996;9.594;2022-07-29T08:29:55;3.15;;;2.67;;
17175;SDS011;8703;48.996;9.594;2022-07-29T08:32:23;3.55;;;2.90;;
17175;SDS011;8703;48.996;9.594;2022-07-29T08:34:50;3.30;;;2.85;;
17175;SDS011;8703;48.996;9.594;2022-07-29T08:37:18;3.40;;;2.67;;
17175;SDS011;8703;48.996;9.594;2022-07-29T08:39:45;2.65;;;2.45;;
17175;SDS011;8703;48.996;9.594;2022-07-29T08:42:12;4.68;;;2.80;;
17175;SDS011;8703;48.996;9.594;2022-07-29T08:44:41;3.50;;;2.80;;
17175;SDS011;8703;48.996;9.594;2022-07-29T08:47:10;3.70;;;2.85;;
17175;SDS011;8703;48.996;9.594;2022-07-29T08:49:40;3.33;;;2.65;;
17175;SDS011;8703;48.996;9.594;2022-07-29T08:52:09;3.72;;;2.90;;
17175;SDS011;8703;48.996;9.594;2022-07-29T08:54:37;3.15;;;2.85;;
17175;SDS011;8703;48.996;9.594;2022-07-29T08:57:05;2.90;;;2.60;;
17175;SDS011;8703;48.996;9.594;2022-07-29T08:59:33;2.90;;;2.70;;
17175;SDS011;8703;48.996;9.594;2022-07-29T09:02:01;3.47;;;2.60;;
17175;SDS011;8703;48.996;9.594;2022-07-29T09:04:32;3.20;;;2.80;;
17175;SDS011;8703;48.996;9.594;2022-07-29T09:07:02;4.32;;;3.00;;
17175;SDS011;8703;48.996;9.594;2022-07-29T09:09:30;3.70;;;2.80;;
17175;SDS011;8703;48.996;9.594;2022-07-29T09:12:00;3.60;;;3.10;;
17175;SDS011;8703;48.996;9.594;2022-07-29T09:14:28;5.50;;;3.03;;
17175;SDS011;8703;48.996;9.594;2022-07-29T09:16:57;3.60;;;2.80;;
17175;SDS011;8703;48.996;9.594;2022-07-29T09:19:26;3.25;;;2.95;;
17175;SDS011;8703;48.996;9.594;2022-07-29T09:21:56;4.07;;;2.83;;
17175;SDS011;8703;48.996;9.594;2022-07-29T09:24:36;3.92;;;2.80;;
17175;SDS011;8703;48.996;9.594;2022-07-29T09:27:08;3.78;;;2.95;;
17175;SDS011;8703;48.996;9.594;2022-07-29T09:29:37;4.10;;;3.10;;
17175;SDS011;8703;48.996;9.594;2022-07-29T09:32:06;5.18;;;3.03;;
17175;SDS011;8703;48.996;9.594;2022-07-29T09:34:35;3.35;;;3.00;;
17175;SDS011;8703;48.996;9.594;2022-07-29T09:37:04;3.05;;;2.75;;
17175;SDS011;8703;48.996;9.594;2022-07-29T09:39:32;4.30;;;2.88;;
17175;SDS011;8703;48.996;9.594;2022-07-29T09:42:01;3.28;;;2.97;;
17175;SDS011;8703;48.996;9.594;2022-07-29T09:44:43;3.30;;;3.00;;
17175;SDS011;8703;48.996;9.594;2022-07-29T09:47:13;4.63;;;3.28;;
17175;SDS011;8703;48.996;9.594;2022-07-29T09:49:51;4.68;;;2.97;;
17175;SDS011;8703;48.996;9.594;2022-07-29T09:52:21;3.67;;;3.30;;
17175;SDS011;8703;48.996;9.594;2022-07-29T09:54:48;3.75;;;3.35;;
17175;SDS011;8703;48.996;9.594;2022-07-29T09:57:23;4.10;;;3.45;;
17175;SDS011;8703;48.996;9.594;2022-07-29T09:59:55;4.00;;;3.25;;
17175;SDS011;8703;48.996;9.594;2022-07-29T10:02:27;4.57;;;3.58;;
17175;SDS011;8703;48.996;9.594;2022-07-29T10:04:55;3.40;;;3.10;;
17175;SDS011;8703;48.996;9.594;2022-07-29T10:07:25;4.47;;;3.30;;
17175;SDS011;8703;48.996;9.594;2022-07-29T10:09:53;4.72;;;3.80;;
17175;SDS011;8703;48.996;9.594;2022-07-29T10:12:21;5.85;;;3.10;;
17175;SDS011;8703;48.996;9.594;2022-07-29T10:14:49;4.72;;;3.60;;
17175;SDS011;8703;48.996;9.594;2022-07-29T10:17:16;3.50;;;3.20;;
17175;SDS011;8703;48.996;9.594;2022-07-29T10:19:44;4.18;;;3.28;;
17175;SDS011;8703;48.996;9.594;2022-07-29T10:22:12;3.63;;;3.33;;
17175;SDS011;8703;48.996;9.594;2022-07-29T10:24:40;3.90;;;3.50;;
17175;SDS011;8703;48.996;9.594;2022-07-29T10:27:08;4.50;;;3.33;;
17175;SDS011;8703;48.996;9.594;2022-07-29T10:29:35;4.32;;;3.28;;
17175;SDS011;8703;48.996;9.594;2022-07-29T10:32:17;4.25;;;3.22;;
17175;SDS011;8703;48.996;9.594;2022-07-29T10:35:00;5.18;;;3.65;;
17175;SDS011;8703;48.996;9.594;2022-07-29T10:37:43;4.32;;;3.50;;
17175;SDS011;8703;48.996;9.594;2022-07-29T10:40:25;3.75;;;3.40;;
17175;SDS011;8703;48.996;9.594;2022-07-29T10:43:16;6.30;;;3.97;;
17175;SDS011;8703;48.996;9.594;2022-07-29T10:45:45;4.35;;;3.83;;
17175;SDS011;8703;48.996;9.594;2022-07-29T10:48:14;4.25;;;3.35;;
17175;SDS011;8703;48.996;9.594;2022-07-29T10:50:54;4.32;;;3.50;;
17175;SDS011;8703;48.996;9.594;2022-07-29T10:53:24;6.25;;;3.70;;
17175;SDS011;8703;48.996;9.594;2022-07-29T10:56:23;6.07;;;3.45;;
17175;SDS011;8703;48.996;9.594;2022-07-29T11:01:51;3.90;;;3.50;;
17175;SDS011;8703;48.996;9.594;2022-07-29T11:07:26;4.13;;;3.40;;
17175;SDS011;8703;48.996;9.594;2022-07-29T11:12:51;4.78;;;3.70;;
17175;SDS011;8703;48.996;9.594;2022-07-29T11:15:19;4.20;;;3.60;;
17175;SDS011;8703;48.996;9.594;2022-07-29T11:18:02;5.80;;;3.67;;
17175;SDS011;8703;48.996;9.594;2022-07-29T11:20:34;4.30;;;3.70;;
17175;SDS011;8703;48.996;9.594;2022-07-29T11:23:17;4.78;;;3.60;;
17175;SDS011;8703;48.996;9.594;2022-07-29T11:25:45;4.45;;;3.47;;
17175;SDS011;8703;48.996;9.594;2022-07-29T11:28:21;5.53;;;3.80;;
17175;SDS011;8703;48.996;9.594;2022-07-29T11:30:49;6.53;;;3.97;;
17175;SDS011;8703;48.996;9.594;2022-07-29T11:33:28;4.65;;;3.53;;
17175;SDS011;8703;48.996;9.594;2022-07-29T11:36:08;6.57;;;3.72;;
17175;SDS011;8703;48.996;9.594;2022-07-29T11:38:36;8.00;;;4.00;;
17175;SDS011;8703;48.996;9.594;2022-07-29T11:41:19;4.78;;;3.78;;
17175;SDS011;8703;48.996;9.594;2022-07-29T11:43:50;5.00;;;3.65;;
17175;SDS011;8703;48.996;9.594;2022-07-29T11:49:14;5.45;;;4.00;;
17175;SDS011;8703;48.996;9.594;2022-07-29T11:51:49;5.72;;;4.00;;
17175;SDS011;8703;48.996;9.594;2022-07-29T11:54:22;6.18;;;4.10;;
17175;SDS011;8703;48.996;9.594;2022-07-29T11:56:51;4.40;;;4.00;;
17175;SDS011;8703;48.996;9.594;2022-07-29T11:59:20;4.47;;;3.60;;
17175;SDS011;8703;48.996;9.594;2022-07-29T12:01:54;6.43;;;4.32;;
17175;SDS011;8703;48.996;9.594;2022-07-29T12:04:21;6.07;;;4.07;;
17175;SDS011;8703;48.996;9.594;2022-07-29T12:06:49;5.45;;;3.92;;
17175;SDS011;8703;48.996;9.594;2022-07-29T12:09:17;6.45;;;3.90;;
17175;SDS011;8703;48.996;9.594;2022-07-29T12:11:45;4.93;;;3.88;;
17175;SDS011;8703;48.996;9.594;2022-07-29T12:16:57;6.60;;;3.80;;
17175;SDS011;8703;48.996;9.594;2022-07-29T12:19:25;5.07;;;3.83;;
17175;SDS011;8703;48.996;9.594;2022-07-29T12:21:53;5.28;;;3.75;;
17175;SDS011;8703;48.996;9.594;2022-07-29T12:24:23;4.32;;;3.67;;
17175;SDS011;8703;48.996;9.594;2022-07-29T12:26:51;4.00;;;3.67;;
17175;SDS011;8703;48.996;9.594;2022-07-29T12:29:19;5.60;;;3.72;;
17175;SDS011;8703;48.996;9.594;2022-07-29T12:31:50;6.38;;;3.55;;
17175;SDS011;8703;48.996;9.594;2022-07-29T12:34:19;5.10;;;3.83;;
17175;SDS011;8703;48.996;9.594;2022-07-29T12:36:47;7.43;;;3.88;;
17175;SDS011;8703;48.996;9.594;2022-07-29T12:39:15;5.60;;;3.60;;
17175;SDS011;8703;48.996;9.594;2022-07-29T12:41:44;4.28;;;3.88;;
17175;SDS011;8703;48.996;9.594;2022-07-29T12:44:13;5.22;;;3.72;;
17175;SDS011;8703;48.996;9.594;2022-07-29T12:46:40;5.22;;;3.80;;
17175;SDS011;8703;48.996;9.594;2022-07-29T12:49:15;5.35;;;3.65;;
17175;SDS011;8703;48.996;9.594;2022-07-29T12:51:49;7.10;;;3.97;;
17175;SDS011;8703;48.996;9.594;2022-07-29T12:54:34;9.00;;;3.78;;
17175;SDS011;8703;48.996;9.594;2022-07-29T12:57:01;5.53;;;3.80;;
17175;SDS011;8703;48.996;9.594;2022-07-29T12:59:29;5.47;;;3.92;;
17175;SDS011;8703;48.996;9.594;2022-07-29T13:01:56;6.43;;;3.17;;
17175;SDS011;8703;48.996;9.594;2022-07-29T13:04:26;6.00;;;3.38;;
17175;SDS011;8703;48.996;9.594;2022-07-29T13:06:58;2.95;;;2.75;;
17175;SDS011;8703;48.996;9.594;2022-07-29T13:09:35;3.33;;;2.75;;
17175;SDS011;8703;48.996;9.594;2022-07-29T13:12:05;3.42;;;2.58;;
17175;SDS011;8703;48.996;9.594;2022-07-29T13:14:35;3.42;;;2.63;;
17175;SDS011;8703;48.996;9.594;2022-07-29T13:17:04;2.63;;;1.92;;
17175;SDS011;8703;48.996;9.594;2022-07-29T13:19:34;3.03;;;1.98;;
17175;SDS011;8703;48.996;9.594;2022-07-29T13:22:03;3.80;;;2.30;;
17175;SDS011;8703;48.996;9.594;2022-07-29T13:24:30;4.63;;;2.83;;
17175;SDS011;8703;48.996;9.594;2022-07-29T13:26:58;2.97;;;2.70;;
17175;SDS011;8703;48.996;9.594;2022-07-29T13:29:26;3.10;;;2.45;;
17175;SDS011;8703;48.996;9.594;2022-07-29T13:31:53;3.83;;;2.58;;
17175;SDS011;8703;48.996;9.594;2022-07-29T13:34:21;3.20;;;2.38;;
17175;SDS011;8703;48.996;9.594;2022-07-29T13:36:50;3.63;;;2.20;;
17175;SDS011;8703;48.996;9.594;2022-07-29T13:39:17;2.83;;;1.80;;
17175;SDS011;8703;48.996;9.594;2022-07-29T13:41:45;3.25;;;1.67;;
17175;SDS011;8703;48.996;9.594;2022-07-29T13:44:12;2.83;;;1.90;;
17175;SDS011;8703;48.996;9.594;2022-07-29T13:46:39;2.08;;;1.80;;
17175;SDS011;8703;48.996;9.594;2022-07-29T13:49:07;1.98;;;1.73;;
17175;SDS011;8703;48.996;9.594;2022-07-29T13:51:36;2.72;;;1.80;;
17175;SDS011;8703;48.996;9.594;2022-07-29T13:54:04;2.63;;;2.03;;
17175;SDS011;8703;48.996;9.594;2022-07-29T13:56:32;2.72;;;1.70;;
17175;SDS011;8703;48.996;9.594;2022-07-29T13:59:00;2.80;;;1.90;;
17175;SDS011;8703;48.996;9.594;2022-07-29T14:01:27;2.47;;;2.20;;
17175;SDS011;8703;48.996;9.594;2022-07-29T14:03:55;2.50;;;2.30;;
17175;SDS011;8703;48.996;9.594;2022-07-29T14:06:22;3.47;;;2.50;;
17175;SDS011;8703;48.996;9.594;2022-07-29T14:08:49;2.50;;;2.20;;
17175;SDS011;8703;48.996;9.594;2022-07-29T14:11:18;2.60;;;2.40;;
17175;SDS011;8703;48.996;9.594;2022-07-29T14:13:46;2.75;;;2.20;;
17175;SDS011;8703;48.996;9.594;2022-07-29T14:16:13;3.45;;;2.17;;
17175;SDS011;8703;48.996;9.594;2022-07-29T14:18:41;2.47;;;2.28;;
17175;SDS011;8703;48.996;9.594;2022-07-29T14:21:08;2.42;;;2.00;;
17175;SDS011;8703;48.996;9.594;2022-07-29T14:23:36;2.22;;;2.03;;
17175;SDS011;8703;48.996;9.594;2022-07-29T14:26:03;2.40;;;1.90;;
17175;SDS011;8703;48.996;9.594;2022-07-29T14:28:32;3.53;;;2.00;;
17175;SDS011;8703;48.996;9.594;2022-07-29T14:31:01;3.42;;;2.00;;
17175;SDS011;8703;48.996;9.594;2022-07-29T14:33:28;2.40;;;2.20;;
17175;SDS011;8703;48.996;9.594;2022-07-29T14:35:56;2.38;;;2.08;;
17175;SDS011;8703;48.996;9.594;2022-07-29T14:38:23;3.42;;;2.20;;
17175;SDS011;8703;48.996;9.594;2022-07-29T14:40:50;3.63;;;2.58;;
17175;SDS011;8703;48.996;9.594;2022-07-29T14:43:18;3.33;;;2.35;;
17175;SDS011;8703;48.996;9.594;2022-07-29T14:45:47;2.85;;;2.58;;
17175;SDS011;8703;48.996;9.594;2022-07-29T14:48:14;4.43;;;2.47;;
17175;SDS011;8703;48.996;9.594;2022-07-29T14:50:41;3.53;;;2.20;;
17175;SDS011;8703;48.996;9.594;2022-07-29T14:53:09;3.53;;;2.33;;
17175;SDS011;8703;48.996;9.594;2022-07-29T14:55:38;2.80;;;2.40;;
17175;SDS011;8703;48.996;9.594;2022-07-29T14:58:05;4.53;;;2.40;;
17175;SDS011;8703;48.996;9.594;2022-07-29T15:00:33;3.70;;;2.70;;
17175;SDS011;8703;48.996;9.594;2022-07-29T15:03:03;3.00;;;2.60;;
17175;SDS011;8703;48.996;9.594;2022-07-29T15:05:31;3.15;;;2.60;;
17175;SDS011;8703;48.996;9.594;2022-07-29T15:07:59;4.93;;;2.75;;
17175;SDS011;8703;48.996;9.594;2022-07-29T15:10:27;3.72;;;2.63;;
17175;SDS011;8703;48.996;9.594;2022-07-29T15:12:54;3.13;;;2.53;;
17175;SDS011;8703;48.996;9.594;2022-07-29T15:15:22;3.03;;;2.55;;
17175;SDS011;8703;48.996;9.594;2022-07-29T15:17:49;2.90;;;2.60;;
17175;SDS011;8703;48.996;9.594;2022-07-29T15:20:18;6.05;;;2.80;;
17175;SDS011;8703;48.996;9.594;2022-07-29T15:22:46;4.80;;;2.88;;
17175;SDS011;8703;48.996;9.594;2022-07-29T15:25:13;3.10;;;2.80;;
17175;SDS011;8703;48.996;9.594;2022-07-29T15:27:41;4.25;;;2.95;;
17175;SDS011;8703;48.996;9.594;2022-07-29T15:30:09;3.67;;;2.65;;